createdAt,value
2023-02-08T00:00:12.514Z,-1.42
2023-02-08T00:03:37.415Z,-1.45
2023-02-08T00:06:21.270Z,-1.47
2023-02-08T00:09:33.025Z,-1.48
2023-02-08T00:12:24.051Z,-1.50
2023-02-08T00:15:24.716Z,-1.50
2023-02-08T00:18:24.795Z,-1.50
2023-02-08T00:21:25.883Z,-1.51
2023-02-08T00:24:17.314Z,-1.52
2023-02-08T00:26:48.359Z,-1.54
2023-02-08T00:29:56.719Z,-1.55
2023-02-08T00:33:04.578Z,-1.61
2023-02-08T00:36:25.625Z,-1.64
2023-02-08T00:39:09.570Z,-1.68
2023-02-08T00:42:00.495Z,-1.71
2023-02-08T00:44:51.954Z,-1.73
2023-02-08T00:48:20.582Z,-1.73
2023-02-08T00:51:02.573Z,-1.75
2023-02-08T00:53:55.941Z,-1.73
2023-02-08T00:56:31.898Z,-1.73
2023-02-08T00:59:31.347Z,-1.73
2023-02-08T01:02:11.491Z,-1.75
2023-02-08T01:04:49.658Z,-1.77
2023-02-08T01:07:27.164Z,-1.81
2023-02-08T01:09:55.266Z,-1.82
2023-02-08T01:12:25.130Z,-1.85
2023-02-08T01:14:57.788Z,-1.87
2023-02-08T01:17:26.030Z,-1.89
2023-02-08T01:19:54.179Z,-1.91
2023-02-08T01:22:33.930Z,-1.92
2023-02-08T01:25:04.304Z,-1.94
2023-02-08T01:27:43.794Z,-1.96
2023-02-08T01:30:18.006Z,-1.97
2023-02-08T01:33:09.361Z,-1.98
2023-02-08T01:35:55.880Z,-1.99
2023-02-08T01:38:34.696Z,-2.03
2023-02-08T01:41:20.316Z,-2.08
2023-02-08T01:44:27.236Z,-2.13
2023-02-08T01:47:11.901Z,-2.18
2023-02-08T01:49:41.097Z,-2.21
2023-02-08T01:52:17.146Z,-2.23
2023-02-08T01:54:55.892Z,-2.26
2023-02-08T01:57:42.712Z,-2.28
2023-02-08T02:00:37.304Z,-2.29
2023-02-08T02:03:29.825Z,-2.28
2023-02-08T02:06:28.504Z,-2.27
2023-02-08T02:09:51.830Z,-2.26
2023-02-08T02:12:34.596Z,-2.26
2023-02-08T02:15:29.098Z,-2.27
2023-02-08T02:18:05.964Z,-2.28
2023-02-08T02:21:42.868Z,-2.30
2023-02-08T02:24:45.377Z,-2.38
2023-02-08T02:27:52.584Z,-2.44
2023-02-08T02:31:06.966Z,-2.48
2023-02-08T02:34:39.392Z,-2.53
2023-02-08T02:37:37.781Z,-2.60
2023-02-08T02:41:13.710Z,-2.62
2023-02-08T02:44:15.462Z,-2.62
2023-02-08T02:47:39.441Z,-2.62
2023-02-08T02:51:03.013Z,-2.61
2023-02-08T02:53:58.693Z,-2.60
2023-02-08T02:57:16.534Z,-2.56
2023-02-08T03:00:11.536Z,-2.53
2023-02-08T03:03:00.313Z,-2.52
2023-02-08T03:05:38.116Z,-2.51
2023-02-08T03:08:32.783Z,-2.52
2023-02-08T03:11:49.354Z,-2.54
2023-02-08T03:14:47.295Z,-2.57
2023-02-08T03:17:51.295Z,-2.58
2023-02-08T03:20:42.472Z,-2.58
2023-02-08T03:23:37.242Z,-2.60
2023-02-08T03:26:20.252Z,-2.60
2023-02-08T03:29:09.996Z,-2.60
2023-02-08T03:32:38.739Z,-2.60
2023-02-08T03:35:47.192Z,-2.60
2023-02-08T03:38:42.626Z,-2.60
2023-02-08T03:41:23.504Z,-2.60
2023-02-08T03:44:01.082Z,-2.60
2023-02-08T03:46:55.473Z,-2.62
2023-02-08T03:49:54.203Z,-2.63
2023-02-08T03:52:36.482Z,-2.64
2023-02-08T03:55:16.396Z,-2.68
2023-02-08T03:57:49.001Z,-2.71
2023-02-08T04:00:19.547Z,-2.75
2023-02-08T04:03:34.021Z,-2.80
2023-02-08T04:06:03.148Z,-2.85
2023-02-08T04:08:34.542Z,-2.88
2023-02-08T04:11:02.659Z,-2.88
2023-02-08T04:13:56.441Z,-2.92
2023-02-08T04:16:33.784Z,-2.99
2023-02-08T04:19:02.036Z,-3.04
2023-02-08T04:21:58.086Z,-3.04
2023-02-08T04:24:26.251Z,-3.01
2023-02-08T04:26:56.983Z,-3.01
2023-02-08T04:29:25.507Z,-3.01
2023-02-08T04:32:14.020Z,-3.02
2023-02-08T04:34:44.965Z,-3.04
2023-02-08T04:37:13.097Z,-3.08
2023-02-08T04:40:01.668Z,-3.11
2023-02-08T04:42:41.822Z,-3.15
2023-02-08T04:45:13.089Z,-3.18
2023-02-08T04:47:43.790Z,-3.23
2023-02-08T04:50:15.045Z,-3.27
2023-02-08T04:53:02.477Z,-3.32
2023-02-08T04:55:44.688Z,-3.35
2023-02-08T04:58:12.994Z,-3.36
2023-02-08T05:01:01.526Z,-3.36
2023-02-08T05:03:33.874Z,-3.34
2023-02-08T05:06:22.438Z,-3.33
2023-02-08T05:08:50.995Z,-3.35
2023-02-08T05:11:28.797Z,-3.35
2023-02-08T05:14:37.233Z,-3.35
2023-02-08T05:17:14.430Z,-3.38
2023-02-08T05:20:18.185Z,-3.41
2023-02-08T05:22:51.087Z,-3.47
2023-02-08T05:25:22.004Z,-3.51
2023-02-08T05:27:58.618Z,-3.55
2023-02-08T05:30:33.162Z,-3.57
2023-02-08T05:33:01.314Z,-3.60
2023-02-08T05:35:29.392Z,-3.60
2023-02-08T05:38:15.483Z,-3.60
2023-02-08T05:40:48.780Z,-3.57
2023-02-08T05:43:19.498Z,-3.55
2023-02-08T05:46:09.696Z,-3.54
2023-02-08T05:48:58.779Z,-3.54
2023-02-08T05:51:32.469Z,-3.54
2023-02-08T05:54:40.427Z,-3.55
2023-02-08T05:57:10.783Z,-3.60
2023-02-08T05:59:38.978Z,-3.64
2023-02-08T06:02:09.987Z,-3.67
2023-02-08T06:04:51.097Z,-3.70
2023-02-08T06:07:19.554Z,-3.72
2023-02-08T06:09:50.490Z,-3.71
2023-02-08T06:12:19.167Z,-3.69
2023-02-08T06:14:47.639Z,-3.69
2023-02-08T06:17:16.257Z,-3.69
2023-02-08T06:19:54.452Z,-3.69
2023-02-08T06:22:22.540Z,-3.71
2023-02-08T06:24:50.690Z,-3.73
2023-02-08T06:27:43.377Z,-3.75
2023-02-08T06:30:15.915Z,-3.79
2023-02-08T06:32:44.195Z,-3.82
2023-02-08T06:35:32.795Z,-3.85
2023-02-08T06:38:01.382Z,-3.88
2023-02-08T06:41:07.974Z,-3.86
2023-02-08T06:43:40.820Z,-3.87
2023-02-08T06:46:09.131Z,-3.89
2023-02-08T06:48:37.951Z,-3.94
2023-02-08T06:51:11.564Z,-4.01
2023-02-08T06:53:42.736Z,-4.03
2023-02-08T06:56:10.699Z,-4.03
2023-02-08T06:58:38.959Z,-4.06
2023-02-08T07:01:27.560Z,-4.07
2023-02-08T07:03:55.999Z,-4.09
2023-02-08T07:06:24.380Z,-4.09
2023-02-08T07:08:52.879Z,-4.08
2023-02-08T07:11:23.575Z,-4.09
2023-02-08T07:13:52.849Z,-4.09
2023-02-08T07:16:41.207Z,-4.11
2023-02-08T07:19:12.994Z,-4.14
2023-02-08T07:21:44.343Z,-4.13
2023-02-08T07:24:13.706Z,-4.12
2023-02-08T07:26:41.897Z,-4.09
2023-02-08T07:29:10.293Z,-4.07
2023-02-08T07:31:38.610Z,-4.04
2023-02-08T07:34:07.136Z,-4.02
2023-02-08T07:36:35.920Z,-4.00
2023-02-08T07:39:04.295Z,-3.96
2023-02-08T07:41:32.517Z,-3.92
2023-02-08T07:44:01.007Z,-3.87
2023-02-08T07:46:29.311Z,-3.81
2023-02-08T07:49:06.344Z,-3.76
2023-02-08T07:51:35.010Z,-3.71
2023-02-08T07:54:03.921Z,-3.68
2023-02-08T07:56:32.539Z,-3.65
2023-02-08T07:59:06.705Z,-3.63
2023-02-08T08:01:40.416Z,-3.60
2023-02-08T08:04:11.869Z,-3.56
2023-02-08T08:06:42.409Z,-3.52
2023-02-08T08:09:10.828Z,-3.47
2023-02-08T08:11:38.978Z,-3.40
2023-02-08T08:14:07.303Z,-3.32
2023-02-08T08:16:41.316Z,-3.26
2023-02-08T08:19:11.743Z,-3.22
2023-02-08T08:21:40.150Z,-3.17
2023-02-08T08:24:18.226Z,-3.13
2023-02-08T08:26:46.613Z,-3.10
2023-02-08T08:29:15.052Z,-3.06
2023-02-08T08:31:47.480Z,-3.01
2023-02-08T08:34:30.966Z,-2.93
2023-02-08T08:37:03.081Z,-2.85
2023-02-08T08:39:32.284Z,-2.78
2023-02-08T08:42:09.448Z,-2.67
2023-02-08T08:44:40.001Z,-2.59
2023-02-08T08:47:12.554Z,-2.51
2023-02-08T08:49:52.030Z,-2.45
2023-02-08T08:52:52.068Z,-2.38
2023-02-08T08:55:33.284Z,-2.30
2023-02-08T08:58:01.697Z,-2.21
2023-02-08T09:00:50.321Z,-2.13
2023-02-08T09:03:36.838Z,-2.02
2023-02-08T09:06:09.984Z,-1.91
2023-02-08T09:08:43.910Z,-1.82
2023-02-08T09:11:21.742Z,-1.73
2023-02-08T09:13:55.772Z,-1.65
2023-02-08T09:16:48.324Z,-1.57
2023-02-08T09:19:24.542Z,-1.49
2023-02-08T09:22:00.731Z,-1.41
2023-02-08T09:24:57.136Z,-1.34
2023-02-08T09:27:38.071Z,-1.26
2023-02-08T09:30:07.537Z,-1.17
2023-02-08T09:32:56.033Z,-1.09
2023-02-08T09:35:24.439Z,-0.98
2023-02-08T09:38:02.354Z,-0.90
2023-02-08T09:41:39.055Z,-0.80
2023-02-08T09:45:07.420Z,-0.66
2023-02-08T09:48:00.148Z,-0.54
2023-02-08T09:50:34.363Z,-0.46
2023-02-08T09:53:41.694Z,-0.38
2023-02-08T09:56:21.829Z,-0.26
2023-02-08T09:59:15.596Z,-0.15
2023-02-08T10:01:46.780Z,-0.02
2023-02-08T10:05:16.955Z,0.09
2023-02-08T10:07:55.004Z,0.25
2023-02-08T10:11:14.541Z,0.37
2023-02-08T10:14:43.310Z,0.51
2023-02-08T10:17:44.114Z,0.62
2023-02-08T10:21:16.430Z,0.73
2023-02-08T10:23:59.809Z,0.85
2023-02-08T10:27:07.721Z,0.95
2023-02-08T10:30:03.154Z,1.08
2023-02-08T10:33:07.161Z,1.18
2023-02-08T10:35:56.170Z,1.29
2023-02-08T10:38:46.496Z,1.38
2023-02-08T10:41:42.400Z,1.47
2023-02-08T10:44:52.541Z,1.58
2023-02-08T10:48:03.452Z,1.69
2023-02-08T10:51:09.805Z,1.81
2023-02-08T10:53:38.233Z,1.90
2023-02-08T10:56:48.403Z,1.98
2023-02-08T11:00:07.351Z,2.11
2023-02-08T11:03:00.719Z,2.24
2023-02-08T11:05:41.549Z,2.34
2023-02-08T11:09:00.874Z,2.44
2023-02-08T11:11:47.164Z,2.57
2023-02-08T11:14:47.431Z,2.67
2023-02-08T11:17:39.862Z,2.81
2023-02-08T11:20:25.278Z,2.94
2023-02-08T11:23:23.596Z,3.05
2023-02-08T11:26:54.161Z,3.17
2023-02-08T11:29:33.526Z,3.32
2023-02-08T11:32:16.357Z,3.42
2023-02-08T11:34:48.933Z,3.51
2023-02-08T11:37:41.047Z,3.60
2023-02-08T11:40:25.120Z,3.69
2023-02-08T11:42:53.828Z,3.78
2023-02-08T11:46:02.145Z,3.87
2023-02-08T11:49:09.858Z,3.98
2023-02-08T11:51:50.153Z,4.06
2023-02-08T11:54:52.622Z,4.14
2023-02-08T11:57:33.498Z,4.22
2023-02-08T12:00:57.826Z,4.30
2023-02-08T12:04:00.170Z,4.38
2023-02-08T12:07:35.069Z,4.45
2023-02-08T12:10:55.914Z,4.54
2023-02-08T12:14:17.059Z,4.62
2023-02-08T12:17:47.123Z,4.69
2023-02-08T12:20:40.259Z,4.76
2023-02-08T12:23:57.710Z,4.82
2023-02-08T12:26:58.452Z,4.89
2023-02-08T12:29:56.069Z,4.94
2023-02-08T12:32:56.438Z,4.98
2023-02-08T12:36:04.245Z,5.04
2023-02-08T12:39:34.000Z,5.08
2023-02-08T12:42:41.430Z,5.13
2023-02-08T12:45:45.023Z,5.20
2023-02-08T12:48:27.854Z,5.27
2023-02-08T12:51:41.106Z,5.32
2023-02-08T12:54:47.699Z,5.37
2023-02-08T12:57:34.605Z,5.42
2023-02-08T13:00:07.913Z,5.47
2023-02-08T13:02:54.685Z,5.53
2023-02-08T13:05:25.567Z,5.59
2023-02-08T13:08:08.036Z,5.64
2023-02-08T13:11:19.211Z,5.69
2023-02-08T13:13:55.933Z,5.73
2023-02-08T13:16:31.069Z,5.78
2023-02-08T13:19:59.087Z,5.84
2023-02-08T13:22:50.625Z,5.89
2023-02-08T13:25:34.861Z,5.94
2023-02-08T13:28:34.284Z,6.00
2023-02-08T13:31:07.581Z,6.04
2023-02-08T13:34:01.578Z,6.08
2023-02-08T13:36:34.421Z,6.15
2023-02-08T13:39:27.486Z,6.20
2023-02-08T13:42:29.454Z,6.24
2023-02-08T13:45:09.875Z,6.28
2023-02-08T13:48:02.273Z,6.29
2023-02-08T13:50:38.998Z,6.33
2023-02-08T13:53:07.739Z,6.36
2023-02-08T13:56:01.280Z,6.39
2023-02-08T13:58:34.102Z,6.42
2023-02-08T14:01:29.828Z,6.43
2023-02-08T14:04:07.522Z,6.46
2023-02-08T14:06:57.821Z,6.50
2023-02-08T14:10:04.742Z,6.52
2023-02-08T14:13:08.568Z,6.55
2023-02-08T14:16:20.599Z,6.57
2023-02-08T14:19:18.407Z,6.61
2023-02-08T14:22:02.493Z,6.65
2023-02-08T14:25:03.822Z,6.69
2023-02-08T14:27:51.412Z,6.72
2023-02-08T14:31:00.217Z,6.76
2023-02-08T14:33:45.665Z,6.78
2023-02-08T14:36:47.796Z,6.80
2023-02-08T14:40:14.468Z,6.82
2023-02-08T14:43:23.968Z,6.85
2023-02-08T14:46:14.155Z,6.87
2023-02-08T14:49:25.522Z,6.88
2023-02-08T14:52:43.391Z,6.87
2023-02-08T14:55:19.856Z,6.87
2023-02-08T14:58:45.241Z,6.86
2023-02-08T15:01:27.880Z,6.86
2023-02-08T15:04:02.819Z,6.85
2023-02-08T15:07:01.581Z,6.85
2023-02-08T15:09:37.561Z,6.83
2023-02-08T15:12:18.776Z,6.82
2023-02-08T15:15:31.470Z,6.80
2023-02-08T15:18:42.360Z,6.79
2023-02-08T15:21:25.785Z,6.78
2023-02-08T15:24:51.911Z,6.76
2023-02-08T15:27:57.447Z,6.69
2023-02-08T15:31:26.369Z,6.62
2023-02-08T15:33:55.369Z,6.51
2023-02-08T15:37:05.871Z,6.42
2023-02-08T15:40:18.325Z,6.30
2023-02-08T15:43:13.152Z,6.20
2023-02-08T15:45:41.730Z,6.13
2023-02-08T15:48:15.386Z,6.08
2023-02-08T15:51:14.762Z,6.05
2023-02-08T15:54:06.184Z,6.03
2023-02-08T15:57:00.272Z,6.02
2023-02-08T15:59:51.282Z,6.01
2023-02-08T16:02:43.919Z,6.00
2023-02-08T16:05:23.382Z,6.01
2023-02-08T16:08:21.172Z,6.02
2023-02-08T16:11:08.577Z,5.98
2023-02-08T16:14:51.611Z,5.91
2023-02-08T16:18:39.266Z,5.78
2023-02-08T16:21:28.087Z,5.64
2023-02-08T16:24:23.979Z,5.52
2023-02-08T16:27:25.586Z,5.38
2023-02-08T16:30:52.749Z,5.23
2023-02-08T16:33:25.506Z,5.06
2023-02-08T16:36:02.048Z,4.93
2023-02-08T16:39:13.524Z,4.80
2023-02-08T16:42:36.384Z,4.64
2023-02-08T16:45:24.286Z,4.47
2023-02-08T16:48:00.107Z,4.34
2023-02-08T16:50:38.583Z,4.22
2023-02-08T16:53:10.802Z,4.12
2023-02-08T16:55:58.733Z,4.02
2023-02-08T16:59:10.950Z,3.91
2023-02-08T17:02:20.070Z,3.77
2023-02-08T17:04:54.642Z,3.65
2023-02-08T17:07:36.631Z,3.55
2023-02-08T17:10:17.588Z,3.46
2023-02-08T17:12:45.946Z,3.36
2023-02-08T17:15:13.955Z,3.26
2023-02-08T17:18:11.637Z,3.16
2023-02-08T17:20:47.876Z,3.05
2023-02-08T17:23:16.390Z,2.97
2023-02-08T17:25:47.693Z,2.89
2023-02-08T17:28:25.083Z,2.82
2023-02-08T17:30:56.345Z,2.75
2023-02-08T17:33:29.673Z,2.69
2023-02-08T17:36:25.394Z,2.63
2023-02-08T17:38:55.657Z,2.59
2023-02-08T17:41:25.355Z,2.59
2023-02-08T17:44:06.212Z,2.58
2023-02-08T17:46:59.660Z,2.57
2023-02-08T17:49:29.616Z,2.53
2023-02-08T17:51:58.377Z,2.51
2023-02-08T17:54:45.285Z,2.48
2023-02-08T17:57:19.945Z,2.44
2023-02-08T17:59:48.355Z,2.39
2023-02-08T18:02:50.250Z,2.35
2023-02-08T18:05:28.524Z,2.31
2023-02-08T18:07:57.903Z,2.28
2023-02-08T18:10:55.374Z,2.24
2023-02-08T18:13:26.514Z,2.18
2023-02-08T18:15:54.584Z,2.14
2023-02-08T18:18:26.742Z,2.10
2023-02-08T18:20:54.797Z,2.09
2023-02-08T18:23:47.808Z,2.09
2023-02-08T18:26:19.135Z,2.08
2023-02-08T18:29:11.187Z,2.08
2023-02-08T18:31:42.473Z,2.08
2023-02-08T18:34:15.432Z,2.05
2023-02-08T18:37:12.446Z,2.01
2023-02-08T18:39:40.984Z,1.97
2023-02-08T18:42:09.416Z,1.94
2023-02-08T18:44:57.760Z,1.90
2023-02-08T18:47:26.119Z,1.85
2023-02-08T18:49:55.982Z,1.81
2023-02-08T18:52:24.382Z,1.78
2023-02-08T18:54:52.844Z,1.76
2023-02-08T18:57:22.166Z,1.75
2023-02-08T19:00:08.797Z,1.76
2023-02-08T19:02:39.438Z,1.77
2023-02-08T19:05:11.206Z,1.76
2023-02-08T19:07:40.241Z,1.76
2023-02-08T19:10:08.786Z,1.75
2023-02-08T19:12:37.703Z,1.73
2023-02-08T19:15:06.652Z,1.71
2023-02-08T19:17:58.061Z,1.69
2023-02-08T19:20:26.381Z,1.67
2023-02-08T19:22:54.857Z,1.66
2023-02-08T19:25:23.090Z,1.63
2023-02-08T19:27:51.270Z,1.61
2023-02-08T19:30:20.238Z,1.59
2023-02-08T19:32:51.463Z,1.58
2023-02-08T19:35:20.449Z,1.57
2023-02-08T19:37:57.968Z,1.57
2023-02-08T19:40:25.984Z,1.57
2023-02-08T19:42:57.744Z,1.58
2023-02-08T19:45:26.136Z,1.57
2023-02-08T19:48:04.783Z,1.58
2023-02-08T19:50:32.886Z,1.59
2023-02-08T19:53:01.266Z,1.58
2023-02-08T19:55:29.302Z,1.57
2023-02-08T19:57:57.442Z,1.57
2023-02-08T20:00:33.496Z,1.56
2023-02-08T20:03:05.730Z,1.55
2023-02-08T20:05:45.268Z,1.54
2023-02-08T20:08:13.899Z,1.54
2023-02-08T20:10:47.405Z,1.55
2023-02-08T20:13:15.929Z,1.56
2023-02-08T20:15:45.567Z,1.57
2023-02-08T20:18:15.828Z,1.58
2023-02-08T20:20:44.164Z,1.58
2023-02-08T20:23:32.609Z,1.58
2023-02-08T20:26:31.833Z,1.57
2023-02-08T20:29:03.579Z,1.56
2023-02-08T20:31:38.009Z,1.57
2023-02-08T20:34:08.070Z,1.61
2023-02-08T20:36:40.532Z,1.65
2023-02-08T20:39:39.367Z,1.68
2023-02-08T20:42:07.629Z,1.72
2023-02-08T20:44:36.357Z,1.75
2023-02-08T20:47:04.963Z,1.78
2023-02-08T20:49:36.271Z,1.81
2023-02-08T20:52:15.523Z,1.83
2023-02-08T20:54:49.831Z,1.86
2023-02-08T20:57:22.250Z,1.88
2023-02-08T21:00:14.137Z,1.91
2023-02-08T21:02:48.949Z,1.94
2023-02-08T21:05:17.516Z,1.96
2023-02-08T21:07:46.005Z,1.96
2023-02-08T21:10:15.908Z,1.96
2023-02-08T21:12:44.428Z,1.96
2023-02-08T21:15:16.524Z,1.96
2023-02-08T21:17:45.415Z,1.97
2023-02-08T21:20:37.505Z,1.99
2023-02-08T21:23:17.003Z,2.00
2023-02-08T21:25:48.464Z,2.00
2023-02-08T21:28:27.207Z,2.01
2023-02-08T21:31:07.174Z,2.01
2023-02-08T21:33:39.116Z,2.03
2023-02-08T21:36:12.099Z,2.04
2023-02-08T21:38:47.298Z,2.03
2023-02-08T21:41:21.827Z,2.03
2023-02-08T21:44:14.419Z,2.02
2023-02-08T21:46:45.919Z,2.01
2023-02-08T21:49:33.021Z,1.99
2023-02-08T21:52:30.503Z,1.97
2023-02-08T21:55:01.894Z,1.95
2023-02-08T21:57:33.440Z,1.93
2023-02-08T22:00:51.501Z,1.91
2023-02-08T22:03:31.521Z,1.88
2023-02-08T22:06:28.695Z,1.86
2023-02-08T22:09:13.154Z,1.85
2023-02-08T22:11:50.357Z,1.84
2023-02-08T22:14:31.500Z,1.84
2023-02-08T22:16:59.452Z,1.84
2023-02-08T22:20:09.650Z,1.84
2023-02-08T22:22:59.309Z,1.84
2023-02-08T22:25:59.462Z,1.83
2023-02-08T22:28:48.632Z,1.84
2023-02-08T22:31:19.709Z,1.85
2023-02-08T22:34:03.311Z,1.85
2023-02-08T22:36:34.131Z,1.85
2023-02-08T22:39:46.257Z,1.86
2023-02-08T22:42:29.137Z,1.85
2023-02-08T22:45:06.222Z,1.84
2023-02-08T22:47:35.219Z,1.83
2023-02-08T22:50:19.996Z,1.82
2023-02-08T22:53:19.947Z,1.82
2023-02-08T22:55:56.375Z,1.82
2023-02-08T22:58:38.546Z,1.81
2023-02-08T23:01:17.748Z,1.81
2023-02-08T23:03:51.717Z,1.80
2023-02-08T23:06:22.940Z,1.81
2023-02-08T23:08:54.410Z,1.82
2023-02-08T23:11:25.614Z,1.82
2023-02-08T23:13:56.586Z,1.82
2023-02-08T23:16:33.999Z,1.82
2023-02-08T23:19:02.338Z,1.82
2023-02-08T23:21:35.731Z,1.83
2023-02-08T23:24:16.325Z,1.84
2023-02-08T23:26:45.151Z,1.83
2023-02-08T23:29:19.817Z,1.84
2023-02-08T23:31:56.881Z,1.84
2023-02-08T23:35:25.750Z,1.84
2023-02-08T23:38:33.890Z,1.84
2023-02-08T23:41:37.413Z,1.82
2023-02-08T23:44:07.930Z,1.79
2023-02-08T23:46:47.493Z,1.77
2023-02-08T23:49:15.740Z,1.75
2023-02-08T23:51:47.268Z,1.74
2023-02-08T23:54:15.699Z,1.70
2023-02-08T23:56:55.870Z,1.68
2023-02-08T23:59:24.366Z,1.66
